Time;durP1;ratioP1;P1;durP2;ratioP2;P2;SDS_P1;SDS_P2;PMS_P1;PMS_P2;Temp;Humidity;BMP_temperature;BMP_pressure;BME280_temperature;BME280_humidity;BME280_pressure;Samples;Min_cycle;Max_cycle;Signal;HPM_P1;HPM_P2
2022/01/30 00:02:15;;;;;;;;;15.75;9.75;;;;;9.99;87.70;102334.84;5099775;27;45172;-69
2022/01/30 00:04:41;;;;;;;;;14.00;10.75;;;;;9.99;88.04;102324.34;5096540;27;45371;-73
2022/01/30 00:07:06;;;;;;;;;9.25;9.25;;;;;9.97;87.91;102308.59;5096507;27;45976;-72
2022/01/30 00:09:32;;;;;;;;;13.00;9.25;;;;;10.01;88.12;102317.31;5095462;27;45230;-68
2022/01/30 00:12:01;;;;;;;;;10.25;9.50;;;;;9.99;87.84;102317.34;5097140;27;45457;-68
2022/01/30 00:14:30;;;;;;;;;10.50;10.50;;;;;10.05;88.02;102329.53;5097087;27;45440;-68
2022/01/30 00:17:06;;;;;;;;;10.50;9.75;;;;;10.07;87.99;102328.66;5097086;27;47079;-68
2022/01/30 00:20:20;;;;;;;;;15.75;12.50;;;;;10.05;88.41;102314.63;5096400;27;45238;-67
2022/01/30 00:24:56;;;;;;;;;18.00;11.25;;;;;10.12;88.23;102315.47;5098049;27;45327;-70
2022/01/30 00:27:29;;;;;;;;;12.25;9.25;;;;;10.14;87.77;102320.69;5098208;27;46399;-67
2022/01/30 00:29:55;;;;;;;;;11.25;9.50;;;;;10.13;87.92;102319.84;5096948;27;45534;-66
2022/01/30 00:32:21;;;;;;;;;12.25;9.75;;;;;10.12;87.62;102315.47;5096902;27;45333;-67
2022/01/30 00:34:47;;;;;;;;;9.75;9.00;;;;;10.13;87.47;102309.31;5096968;27;45491;-68
2022/01/30 00:37:12;;;;;;;;;11.50;8.00;;;;;10.12;87.91;102307.56;5111125;27;45401;-72
2022/01/30 00:39:38;;;;;;;;;10.00;8.25;;;;;10.12;87.63;102301.44;5076768;27;45432;-59
2022/01/30 00:42:03;;;;;;;;;10.25;8.50;;;;;10.14;87.75;102299.66;5078910;27;45319;-64
2022/01/30 00:44:29;;;;;;;;;8.50;8.50;;;;;10.09;87.83;102302.34;5097735;27;45198;-71
2022/01/30 00:46:56;;;;;;;;;12.00;9.75;;;;;10.15;87.84;102307.53;5093084;27;45298;-72
2022/01/30 00:49:21;;;;;;;;;11.00;11.00;;;;;10.15;88.19;102302.28;5078456;27;45231;-62
2022/01/30 00:51:47;;;;;;;;;13.25;10.25;;;;;10.17;87.63;102300.50;5077573;27;45345;-66
2022/01/30 00:54:12;;;;;;;;;11.50;9.50;;;;;10.19;87.39;102298.72;5076649;27;45508;-63
2022/01/30 00:56:37;;;;;;;;;11.25;9.50;;;;;10.19;87.62;102297.84;5077557;27;45544;-62
2022/01/30 00:59:03;;;;;;;;;7.00;5.75;;;;;10.19;87.75;102295.22;5078368;27;45456;-62
2022/01/30 01:01:28;;;;;;;;;8.50;8.25;;;;;10.17;87.23;102289.09;5075386;27;45314;-67
2022/01/30 01:03:53;;;;;;;;;9.25;8.25;;;;;10.15;87.63;102288.25;5075585;27;45584;-65
2022/01/30 01:06:19;;;;;;;;;9.25;9.00;;;;;10.09;87.06;102284.81;5076906;27;46236;-69
2022/01/30 01:09:21;;;;;;;;;13.00;9.00;;;;;10.05;87.17;102279.56;5075803;27;45314;-70
2022/01/30 01:20:51;;;;;;;;;12.00;9.00;;;;;9.92;87.66;102281.47;5079094;27;45222;-75
2022/01/30 01:25:01;;;;;;;;;7.00;7.00;;;;;9.81;87.98;102263.19;5079950;27;45206;-69
2022/01/30 01:27:26;;;;;;;;;10.00;8.00;;;;;9.82;88.14;102266.69;5079070;27;48280;-65
2022/01/30 01:29:52;;;;;;;;;8.25;8.25;;;;;9.76;87.77;102273.75;5087916;27;45262;-61
2022/01/30 01:32:17;;;;;;;;;11.00;8.50;;;;;9.68;88.23;102249.31;5084135;27;45319;-66
2022/01/30 01:34:43;;;;;;;;;11.00;9.50;;;;;9.74;88.53;102264.13;5104535;27;45318;-66
2022/01/30 01:37:11;;;;;;;;;12.00;10.00;;;;;9.72;88.27;102269.41;5101937;27;48310;-61
2022/01/30 01:39:36;;;;;;;;;14.75;11.75;;;;;9.73;88.34;102265.00;5101254;27;45368;-61
2022/01/30 01:42:02;;;;;;;;;12.25;10.00;;;;;9.72;89.02;102264.16;5097351;27;45467;-70
2022/01/30 01:44:36;;;;;;;;;14.75;10.75;;;;;9.77;88.57;102269.34;5082874;27;45479;-67
2022/01/30 01:47:03;;;;;;;;;11.00;8.25;;;;;9.78;88.50;102269.34;5088541;27;46620;-64
2022/01/30 01:49:31;;;;;;;;;10.50;10.50;;;;;9.84;88.29;102255.25;5098465;27;45337;-67
2022/01/30 01:54:43;;;;;;;;;15.00;11.25;;;;;9.87;87.92;102276.25;5099710;27;45203;-71
2022/01/30 01:57:08;;;;;;;;;10.75;9.75;;;;;9.88;87.85;102267.47;5098185;27;46216;-63
2022/01/30 01:59:34;;;;;;;;;12.50;12.00;;;;;9.91;87.86;102262.19;5096000;27;45316;-70
2022/01/30 02:02:01;;;;;;;;;9.25;8.25;;;;;9.93;87.60;102267.44;5097758;27;46071;-72
2022/01/30 02:04:27;;;;;;;;;12.00;10.75;;;;;9.96;87.46;102285.81;5099124;27;45572;-65
2022/01/30 02:07:02;;;;;;;;;9.25;7.50;;;;;9.95;87.12;102273.56;5087322;27;46278;-66
2022/01/30 02:09:31;;;;;;;;;16.00;11.00;;;;;9.92;87.23;102260.44;5077876;27;45348;-64
2022/01/30 02:11:57;;;;;;;;;14.00;10.50;;;;;9.96;87.84;102264.78;5077858;27;45519;-60
2022/01/30 02:14:33;;;;;;;;;12.75;10.50;;;;;9.97;87.25;102277.03;5088079;27;45373;-70
2022/01/30 02:25:27;;;;;;;;;12.75;10.00;;;;;9.95;87.25;102263.03;5097175;27;45338;-63
2022/01/30 02:27:57;;;;;;;;;14.00;12.00;;;;;9.91;87.45;102259.56;5099285;27;45477;-60
2022/01/30 02:30:25;;;;;;;;;13.75;10.75;;;;;9.91;87.53;102256.09;5093533;27;45551;-60
2022/01/30 02:32:51;;;;;;;;;12.25;11.00;;;;;9.89;87.69;102257.84;5089127;27;45771;-60
2022/01/30 02:35:16;;;;;;;;;9.75;9.75;;;;;9.92;87.39;102253.41;5097924;27;45567;-63
2022/01/30 02:37:42;;;;;;;;;11.50;11.00;;;;;9.90;87.44;102254.34;5097568;27;46462;-62
2022/01/30 02:40:11;;;;;;;;;15.00;11.00;;;;;9.91;87.38;102259.56;5101544;27;45361;-61
2022/01/30 02:42:40;;;;;;;;;12.25;11.25;;;;;9.90;87.58;102262.22;5099671;27;45220;-65
2022/01/30 02:45:09;;;;;;;;;13.75;9.75;;;;;9.90;87.73;102256.97;5115116;27;45391;-59
2022/01/30 02:50:11;;;;;;;;;15.00;12.75;;;;;9.84;87.58;102260.50;5097445;27;45345;-59
2022/01/30 02:52:40;;;;;;;;;13.00;10.00;;;;;9.74;87.77;102249.25;5099202;27;45321;-63
2022/01/30 02:55:07;;;;;;;;;15.25;11.75;;;;;9.83;87.69;102258.78;5098963;27;45526;-59
2022/01/30 02:57:32;;;;;;;;;17.50;14.25;;;;;9.87;87.69;102270.16;5097403;27;46358;-60
2022/01/30 02:59:57;;;;;;;;;16.50;11.50;;;;;9.85;87.83;102264.88;5096934;27;45368;-59
2022/01/30 03:02:23;;;;;;;;;17.50;13.00;;;;;9.86;87.53;102263.16;5103351;27;45345;-68
2022/01/30 03:04:48;;;;;;;;;24.00;14.25;;;;;9.84;87.74;102271.03;5097557;27;45635;-65
2022/01/30 03:07:14;;;;;;;;;17.25;13.00;;;;;9.84;87.62;102271.03;5097666;27;45341;-67
2022/01/30 03:09:39;;;;;;;;;15.75;14.50;;;;;9.84;87.71;102262.28;5098828;27;45296;-62
2022/01/30 03:12:05;;;;;;;;;12.00;11.50;;;;;9.82;87.59;102262.28;5097479;27;45325;-68
2022/01/30 03:14:31;;;;;;;;;16.75;12.50;;;;;9.81;87.63;102264.94;5097419;27;45622;-60
2022/01/30 03:16:56;;;;;;;;;14.25;13.50;;;;;9.76;87.08;102263.25;5098947;27;45419;-63
2022/01/30 03:19:22;;;;;;;;;15.25;14.00;;;;;9.73;87.27;102258.00;5098191;27;45336;-64
2022/01/30 03:21:47;;;;;;;;;17.25;15.25;;;;;9.77;87.44;102269.34;5097170;27;45393;-61
2022/01/30 03:24:12;;;;;;;;;17.00;12.25;;;;;9.77;87.48;102271.97;5097106;27;45859;-67
2022/01/30 03:26:40;;;;;;;;;18.75;13.00;;;;;9.76;87.31;102271.13;5097031;27;45864;-65
2022/01/30 03:29:08;;;;;;;;;21.00;13.75;;;;;9.75;86.85;102265.88;5094581;27;45638;-65
2022/01/30 03:31:35;;;;;;;;;17.50;14.75;;;;;9.77;87.66;102270.22;5094944;27;45347;-68
2022/01/30 03:34:01;;;;;;;;;15.75;13.50;;;;;9.81;87.11;102273.69;5095420;27;45677;-67
2022/01/30 03:36:26;;;;;;;;;14.25;11.25;;;;;9.80;86.06;102282.47;5095156;27;45902;-63
2022/01/30 03:38:51;;;;;;;;;11.00;9.25;;;;;9.79;85.46;102276.34;5094288;27;45416;-62
2022/01/30 03:41:17;;;;;;;;;11.00;10.00;;;;;9.76;84.98;102272.88;5096470;27;45430;-68
2022/01/30 03:43:42;;;;;;;;;19.75;14.00;;;;;9.74;83.23;102278.16;5098359;27;45455;-65
2022/01/30 03:46:08;;;;;;;;;10.00;8.50;;;;;9.73;82.81;102281.66;5096586;27;48639;-63
2022/01/30 03:48:33;;;;;;;;;16.00;11.50;;;;;9.73;82.32;102265.00;5099394;27;45229;-64
2022/01/30 03:50:58;;;;;;;;;9.25;5.75;;;;;9.72;80.02;102266.78;5098854;27;45322;-66
2022/01/30 03:53:24;;;;;;;;;8.25;6.00;;;;;9.68;78.16;102257.19;5097730;27;45606;-66
2022/01/30 03:55:49;;;;;;;;;6.00;5.00;;;;;9.62;76.27;102255.47;5098160;27;46597;-66
2022/01/30 03:58:14;;;;;;;;;5.50;5.00;;;;;9.62;75.35;102270.38;5103556;27;45553;-66
2022/01/30 04:00:41;;;;;;;;;10.75;3.50;;;;;9.58;73.74;102282.66;5100551;27;45355;-60
2022/01/30 04:03:06;;;;;;;;;6.25;3.25;;;;;9.54;72.88;102275.69;5097151;27;45650;-64
2022/01/30 04:05:32;;;;;;;;;5.00;4.00;;;;;9.53;72.64;102271.31;5096990;27;47522;-64
2022/01/30 04:08:03;;;;;;;;;8.75;6.00;;;;;9.50;71.49;102271.34;5098321;27;45425;-61
2022/01/30 04:10:32;;;;;;;;;3.25;1.00;;;;;9.45;72.07;102276.63;5097538;27;45277;-62
2022/01/30 04:12:58;;;;;;;;;5.00;3.75;;;;;9.44;71.01;102281.91;5097280;27;45257;-64
2022/01/30 04:15:24;;;;;;;;;11.25;9.75;;;;;9.39;70.71;102273.19;5096291;27;46048;-66
2022/01/30 04:17:49;;;;;;;;;7.50;3.50;;;;;9.42;70.83;102283.69;5096466;27;45222;-64
2022/01/30 04:20:15;;;;;;;;;7.75;5.50;;;;;9.43;71.27;102283.66;5096577;27;45336;-63
2022/01/30 04:22:40;;;;;;;;;9.00;2.75;;;;;9.45;70.65;102292.38;5097015;27;45645;-61
2022/01/30 04:25:06;;;;;;;;;9.00;5.25;;;;;9.39;69.81;102278.44;5096785;27;45338;-60
2022/01/30 04:27:31;;;;;;;;;6.75;4.00;;;;;9.38;70.32;102281.97;5096910;27;45321;-62
2022/01/30 04:29:57;;;;;;;;;7.25;4.25;;;;;9.34;70.10;102284.59;5096593;27;45345;-62
2022/01/30 04:32:25;;;;;;;;;7.25;4.75;;;;;9.31;69.97;102282.00;5098532;27;45764;-60
2022/01/30 04:34:58;;;;;;;;;4.00;3.75;;;;;9.29;69.45;102290.75;5099300;27;46342;-61
2022/01/30 04:37:34;;;;;;;;;3.75;2.75;;;;;9.27;69.74;102292.53;5095017;27;45406;-61
2022/01/30 05:09:18;;;;;;;;;4.75;2.00;;;;;8.95;68.34;102310.22;5099619;27;45412;-64
2022/01/30 05:11:44;;;;;;;;;4.25;2.00;;;;;8.96;68.20;102300.59;5101000;27;45303;-59
2022/01/30 05:14:09;;;;;;;;;6.50;3.50;;;;;8.95;68.90;102309.38;5099703;27;45297;-63
2022/01/30 05:16:35;;;;;;;;;4.00;3.00;;;;;8.97;68.57;102300.59;5099184;27;45188;-63
2022/01/30 05:19:01;;;;;;;;;6.25;2.25;;;;;8.97;68.71;102313.72;5100491;27;45271;-61
2022/01/30 05:21:27;;;;;;;;;4.00;2.00;;;;;8.99;68.70;102308.47;5106330;27;45244;-60
2022/01/30 05:23:52;;;;;;;;;5.50;4.25;;;;;8.99;68.18;102316.34;5108312;27;45234;-60
2022/01/30 05:26:21;;;;;;;;;3.50;3.50;;;;;8.91;67.85;102304.13;5102688;27;45347;-60
2022/01/30 05:28:46;;;;;;;;;6.50;3.00;;;;;8.73;67.74;102281.47;5099296;27;45425;-60
2022/01/30 05:31:12;;;;;;;;;6.75;3.25;;;;;8.89;68.18;102316.38;5098793;27;45368;-61
2022/01/30 05:33:37;;;;;;;;;8.00;3.00;;;;;8.89;68.02;102324.25;5099467;27;45341;-61
2022/01/30 05:36:03;;;;;;;;;3.00;3.00;;;;;8.94;68.58;102331.25;5099760;27;46376;-61
2022/01/30 05:38:30;;;;;;;;;9.25;4.25;;;;;8.94;68.78;102328.63;5099058;27;45368;-63
2022/01/30 05:40:56;;;;;;;;;6.00;3.75;;;;;8.95;68.36;102333.84;5099044;27;45219;-67
2022/01/30 05:43:23;;;;;;;;;8.50;3.00;;;;;8.95;67.85;102333.84;5099158;27;45295;-66
2022/01/30 05:45:54;;;;;;;;;9.00;4.75;;;;;8.93;68.17;102329.50;5098943;27;46105;-64
2022/01/30 05:48:20;;;;;;;;;3.00;2.75;;;;;8.88;67.76;102338.25;5100148;27;45223;-60
2022/01/30 05:50:46;;;;;;;;;4.00;4.00;;;;;8.87;67.47;102328.66;5098825;27;45333;-63
2022/01/30 05:53:11;;;;;;;;;8.50;2.00;;;;;8.81;68.34;102327.78;5099148;27;45253;-64
2022/01/30 05:55:37;;;;;;;;;11.50;4.50;;;;;8.84;68.14;102336.53;5098447;27;45679;-60
2022/01/30 05:58:02;;;;;;;;;4.25;4.00;;;;;8.82;67.72;102340.03;5098707;27;45298;-60
2022/01/30 06:00:29;;;;;;;;;6.25;4.00;;;;;8.76;68.44;102327.84;5099372;27;45409;-61
2022/01/30 06:02:54;;;;;;;;;7.25;3.00;;;;;8.77;68.44;102335.69;5098117;27;45328;-59
2022/01/30 06:05:22;;;;;;;;;6.75;3.00;;;;;8.78;68.66;102331.31;5098659;27;46457;-59
2022/01/30 06:07:57;;;;;;;;;5.00;4.00;;;;;8.80;68.93;102334.81;5099480;27;45302;-60
2022/01/30 06:10:26;;;;;;;;;3.75;3.00;;;;;8.82;68.44;102340.91;5099727;27;45226;-61
2022/01/30 06:12:53;;;;;;;;;4.50;3.00;;;;;8.82;68.48;102345.28;5099883;27;45498;-62
2022/01/30 06:15:19;;;;;;;;;7.50;4.75;;;;;8.81;68.58;102344.44;5098011;27;45902;-60
2022/01/30 06:17:44;;;;;;;;;5.50;4.00;;;;;8.82;68.53;102351.41;5097627;27;45368;-61
2022/01/30 06:20:11;;;;;;;;;8.50;2.00;;;;;8.81;67.99;102354.91;5098098;27;45414;-61
2022/01/30 06:22:38;;;;;;;;;6.50;3.00;;;;;8.79;68.51;102359.31;5098826;27;45641;-63
2022/01/30 06:25:05;;;;;;;;;8.75;4.00;;;;;8.72;68.64;102354.97;5098311;27;46909;-60
2022/01/30 06:27:30;;;;;;;;;4.50;3.00;;;;;8.71;67.88;102367.19;5097977;27;45234;-61
2022/01/30 06:29:55;;;;;;;;;7.25;3.50;;;;;8.65;68.33;102369.84;5097952;27;45341;-59
2022/01/30 06:32:21;;;;;;;;;7.75;3.50;;;;;8.58;68.32;102363.75;5098029;27;45218;-61
2022/01/30 06:34:46;;;;;;;;;3.00;3.00;;;;;8.52;68.80;102353.28;5097575;27;45337;-62
2022/01/30 06:37:11;;;;;;;;;8.25;4.75;;;;;8.56;68.48;102364.63;5098695;27;45571;-62
2022/01/30 06:39:37;;;;;;;;;5.25;3.00;;;;;8.54;68.50;102366.38;5099336;27;45295;-64
2022/01/30 06:42:02;;;;;;;;;6.75;2.50;;;;;8.50;68.92;102354.16;5098240;27;45342;-64
2022/01/30 06:44:28;;;;;;;;;4.00;3.25;;;;;8.50;68.85;102351.53;5096261;27;47089;-65
2022/01/30 06:46:53;;;;;;;;;7.25;4.50;;;;;8.44;68.46;102357.63;5097963;27;45268;-74
2022/01/30 06:49:18;;;;;;;;;5.00;3.00;;;;;8.42;69.33;102355.00;5098320;27;45415;-70
2022/01/30 06:51:44;;;;;;;;;4.00;4.00;;;;;8.40;68.15;102354.16;5099012;27;45506;-71
2022/01/30 06:54:09;;;;;;;;;6.00;2.50;;;;;8.39;68.47;102369.88;5102329;27;45577;-63
2022/01/30 06:56:35;;;;;;;;;6.00;4.00;;;;;8.38;68.89;102366.38;5098851;27;45466;-68
2022/01/30 06:59:00;;;;;;;;;5.25;3.50;;;;;8.37;68.28;102362.03;5100216;27;45333;-70
2022/01/30 07:01:26;;;;;;;;;3.25;2.00;;;;;8.34;67.99;102362.88;5101174;27;45778;-70
2022/01/30 07:03:52;;;;;;;;;4.00;3.00;;;;;8.30;68.27;102368.16;5100048;27;46943;-69
2022/01/30 07:06:18;;;;;;;;;3.00;2.25;;;;;8.24;68.96;102365.53;5098147;27;45435;-70
2022/01/30 07:08:43;;;;;;;;;1.25;1.25;;;;;8.16;68.17;102363.81;5098288;27;45289;-67
2022/01/30 07:11:09;;;;;;;;;4.00;3.00;;;;;8.07;68.68;102366.44;5099319;27;45246;-67
2022/01/30 07:13:34;;;;;;;;;4.75;4.00;;;;;7.97;68.68;102356.84;5101735;27;45233;-65
2022/01/30 07:16:00;;;;;;;;;7.00;4.75;;;;;7.94;69.00;102380.41;5102756;27;45217;-69
2022/01/30 07:18:25;;;;;;;;;5.50;2.75;;;;;7.85;69.09;102370.81;5097621;27;45225;-71
2022/01/30 07:20:50;;;;;;;;;10.75;4.00;;;;;7.78;68.81;102382.16;5098819;27;45674;-70
2022/01/30 07:23:16;;;;;;;;;7.50;3.25;;;;;7.71;69.02;102381.28;5098964;27;46305;-70
2022/01/30 07:25:43;;;;;;;;;5.00;3.25;;;;;7.65;69.61;102390.03;5100574;27;45285;-62
2022/01/30 07:28:08;;;;;;;;;7.50;3.00;;;;;7.64;69.62;102393.50;5101110;27;45387;-71
2022/01/30 07:30:34;;;;;;;;;7.00;3.00;;;;;7.57;69.50;102395.22;5102242;27;45546;-68
2022/01/30 07:33:00;;;;;;;;;6.00;3.50;;;;;7.56;69.82;102405.72;5107827;27;46216;-71
2022/01/30 07:35:26;;;;;;;;;10.00;5.00;;;;;7.45;70.36;102406.56;5103487;27;45385;-70
2022/01/30 07:37:51;;;;;;;;;4.75;4.00;;;;;7.44;70.25;102412.69;5099966;27;45370;-69
2022/01/30 07:40:17;;;;;;;;;6.75;3.00;;;;;7.38;70.07;102415.25;5101437;27;45266;-70
2022/01/30 07:42:42;;;;;;;;;7.75;4.25;;;;;7.31;71.01;102414.38;5096799;27;45989;-62
2022/01/30 07:45:08;;;;;;;;;6.00;5.00;;;;;7.31;70.61;102418.72;5097162;27;45372;-70
2022/01/30 07:47:33;;;;;;;;;11.75;4.75;;;;;7.22;71.17;102416.06;5097046;27;45355;-65
2022/01/30 07:49:59;;;;;;;;;10.25;3.25;;;;;7.25;70.64;102426.56;5098798;27;45202;-62
2022/01/30 07:52:24;;;;;;;;;6.00;3.25;;;;;7.23;71.15;102418.72;5097588;27;45302;-70
2022/01/30 07:54:50;;;;;;;;;6.25;4.00;;;;;7.24;71.22;102424.81;5096798;27;45189;-61
2022/01/30 07:57:17;;;;;;;;;5.00;3.00;;;;;7.21;71.41;102428.31;5096977;27;45309;-61
2022/01/30 07:59:42;;;;;;;;;5.00;4.00;;;;;7.19;70.98;102424.81;5098533;27;45594;-67
2022/01/30 08:02:08;;;;;;;;;6.75;3.75;;;;;7.16;71.95;102430.91;5097662;27;45266;-72
2022/01/30 08:04:33;;;;;;;;;9.50;4.00;;;;;7.18;71.63;102430.91;5097249;27;45348;-61
2022/01/30 08:06:59;;;;;;;;;4.75;3.25;;;;;7.15;71.85;102425.66;5095688;27;45376;-70
2022/01/30 08:09:25;;;;;;;;;5.50;3.50;;;;;7.20;71.75;102438.75;5097218;27;45325;-69
2022/01/30 08:11:50;;;;;;;;;9.50;5.00;;;;;7.22;71.92;102439.63;5097055;27;45425;-70
2022/01/30 08:14:16;;;;;;;;;6.25;4.00;;;;;7.25;72.09;102439.66;5099469;27;45424;-72
2022/01/30 08:16:41;;;;;;;;;6.50;4.50;;;;;7.31;71.94;102443.19;5098166;27;46874;-71
2022/01/30 08:19:06;;;;;;;;;9.25;6.25;;;;;7.35;71.61;102438.81;5097192;27;45360;-70
2022/01/30 08:21:32;;;;;;;;;8.75;3.25;;;;;7.36;71.67;102427.47;5097033;27;46068;-66
2022/01/30 08:23:57;;;;;;;;;6.25;4.75;;;;;7.53;71.15;102445.00;5097100;27;45360;-71
2022/01/30 08:26:23;;;;;;;;;7.75;4.50;;;;;7.55;71.35;102436.25;5101351;27;45248;-71
2022/01/30 08:28:48;;;;;;;;;7.50;4.50;;;;;7.60;71.28;102436.28;5104844;27;45441;-61
2022/01/30 08:31:14;;;;;;;;;10.50;5.00;;;;;7.64;71.14;102439.75;5102642;27;46005;-60
2022/01/30 08:33:39;;;;;;;;;5.25;4.00;;;;;7.65;70.07;102445.03;5100241;27;45214;-65
2022/01/30 08:36:05;;;;;;;;;8.50;5.00;;;;;7.65;70.39;102434.53;5100686;27;45620;-61
2022/01/30 08:38:30;;;;;;;;;8.75;4.25;;;;;7.42;69.82;102397.81;5100362;27;45243;-61
2022/01/30 08:40:56;;;;;;;;;9.50;4.75;;;;;7.64;69.99;102435.41;5100473;27;46657;-63
2022/01/30 08:43:22;;;;;;;;;6.75;5.25;;;;;7.65;69.69;102438.88;5102767;27;45330;-73
2022/01/30 08:45:49;;;;;;;;;6.75;5.00;;;;;7.63;69.88;102435.41;5103352;27;45399;-70
2022/01/30 08:48:15;;;;;;;;;5.75;5.25;;;;;7.57;68.22;102438.91;5101809;27;45833;-65
2022/01/30 08:50:40;;;;;;;;;7.25;5.00;;;;;7.53;69.50;102439.75;5100513;27;45830;-69
2022/01/30 08:53:06;;;;;;;;;4.75;3.00;;;;;7.50;69.85;102443.22;5100040;27;45290;-67
2022/01/30 08:55:33;;;;;;;;;4.25;4.25;;;;;7.47;70.19;102431.88;5099963;27;45255;-67
2022/01/30 08:57:58;;;;;;;;;9.25;7.00;;;;;7.49;69.78;102438.00;5100368;27;45348;-63
2022/01/30 09:00:24;;;;;;;;;13.25;6.00;;;;;7.52;69.68;102449.34;5098843;27;46042;-65
2022/01/30 09:02:49;;;;;;;;;6.25;6.00;;;;;7.53;70.46;102445.00;5100034;27;45440;-64
2022/01/30 09:05:15;;;;;;;;;9.25;5.00;;;;;7.58;70.12;102448.50;5101434;27;45290;-64
2022/01/30 09:07:41;;;;;;;;;6.00;3.75;;;;;7.54;69.74;102441.50;5100233;27;45660;-63
2022/01/30 09:10:08;;;;;;;;;8.75;6.00;;;;;7.64;69.96;102450.25;5099566;27;45540;-62
2022/01/30 09:12:34;;;;;;;;;15.25;13.00;;;;;7.68;69.89;102450.25;5101885;27;45375;-60
2022/01/30 09:15:04;;;;;;;;;9.25;5.00;;;;;7.67;68.92;102443.28;5101726;27;45298;-61
2022/01/30 09:17:30;;;;;;;;;4.25;4.25;;;;;7.70;68.59;102450.25;5100264;27;45311;-61
2022/01/30 09:19:55;;;;;;;;;9.00;7.75;;;;;7.68;69.03;102445.03;5099364;27;46885;-71
2022/01/30 09:22:21;;;;;;;;;21.75;17.00;;;;;7.71;68.97;102446.75;5099479;27;45385;-68
2022/01/30 09:24:48;;;;;;;;;9.50;7.50;;;;;7.70;67.90;102451.16;5099579;27;45279;-70
2022/01/30 09:27:14;;;;;;;;;63.50;50.25;;;;;7.67;68.42;102440.66;5099515;27;45283;-70
2022/01/30 09:29:40;;;;;;;;;53.00;41.75;;;;;7.75;68.82;102451.13;5099993;27;45974;-71
2022/01/30 09:32:07;;;;;;;;;7.50;4.25;;;;;7.28;67.44;102376.84;5099636;27;45459;-71
2022/01/30 09:34:33;;;;;;;;;49.25;41.00;;;;;7.72;67.60;102458.97;5099330;27;45931;-72
2022/01/30 09:36:59;;;;;;;;;8.50;8.00;;;;;7.72;68.04;102456.38;5098130;27;45464;-68
2022/01/30 09:39:25;;;;;;;;;61.75;49.00;;;;;7.72;68.22;102461.59;5098714;27;45412;-68
2022/01/30 09:41:52;;;;;;;;;10.50;6.00;;;;;7.74;67.38;102462.47;5098558;27;45449;-72
2022/01/30 09:44:19;;;;;;;;;8.00;6.25;;;;;7.78;66.89;102463.38;5099433;27;45429;-63
2022/01/30 09:46:46;;;;;;;;;11.25;8.00;;;;;7.76;68.04;102465.97;5099644;27;45410;-73
2022/01/30 09:49:12;;;;;;;;;11.75;6.00;;;;;7.74;67.20;102449.38;5098876;27;45772;-71
2022/01/30 09:51:39;;;;;;;;;8.00;3.50;;;;;7.82;67.39;102457.28;5099001;27;45443;-71
2022/01/30 09:54:07;;;;;;;;;6.75;5.00;;;;;7.84;67.62;102461.63;5099720;27;45467;-71
2022/01/30 09:56:33;;;;;;;;;8.00;5.25;;;;;7.84;66.59;102463.38;5102032;27;45467;-69
2022/01/30 09:58:58;;;;;;;;;8.75;5.75;;;;;7.87;66.27;102460.78;5105518;27;45196;-71
2022/01/30 10:01:33;;;;;;;;;7.75;6.25;;;;;7.89;66.60;102461.66;5104431;27;45326;-72
2022/01/30 10:03:58;;;;;;;;;6.75;4.50;;;;;7.90;66.01;102466.88;5100322;27;45306;-73
2022/01/30 10:06:29;;;;;;;;;5.75;5.00;;;;;7.94;66.97;102474.72;5098127;27;45393;-74
2022/01/30 10:08:57;;;;;;;;;4.75;4.75;;;;;7.96;66.67;102462.53;5098806;27;47090;-67
2022/01/30 10:11:34;;;;;;;;;8.25;4.00;;;;;8.01;66.09;102471.28;5100443;27;45291;-74
2022/01/30 10:14:08;;;;;;;;;6.50;4.50;;;;;7.98;65.31;102466.91;5099765;27;45362;-67
2022/01/30 10:16:45;;;;;;;;;4.50;4.25;;;;;8.01;65.79;102464.28;5098168;27;45430;-71
2022/01/30 10:19:19;;;;;;;;;9.75;9.75;;;;;8.03;65.79;102465.16;5099585;27;46324;-72
2022/01/30 10:21:45;;;;;;;;;8.25;6.00;;;;;8.01;65.47;102464.28;5096790;27;46397;-69
2022/01/30 10:24:25;;;;;;;;;13.50;5.00;;;;;8.00;64.89;102465.16;5098387;27;45321;-69
2022/01/30 10:26:52;;;;;;;;;5.50;4.25;;;;;8.01;65.12;102463.41;5098779;27;45438;-64
2022/01/30 10:29:20;;;;;;;;;9.00;5.00;;;;;8.04;65.22;102456.41;5097253;27;46233;-71
2022/01/30 10:32:05;;;;;;;;;9.50;6.25;;;;;8.07;66.18;102462.53;5096591;27;45376;-72
2022/01/30 10:34:32;;;;;;;;;12.50;6.75;;;;;8.13;65.11;102463.41;5098242;27;45386;-69
2022/01/30 10:37:21;;;;;;;;;7.75;6.50;;;;;8.15;64.81;102458.16;5098232;27;45349;-72
2022/01/30 10:39:57;;;;;;;;;7.25;5.00;;;;;8.17;64.89;102464.28;5097745;27;46595;-71
2022/01/30 10:42:31;;;;;;;;;7.25;5.25;;;;;8.21;64.79;102457.31;5092089;27;45548;-70
2022/01/30 10:44:56;;;;;;;;;6.50;5.50;;;;;8.27;64.74;102462.56;5096452;27;45790;-73
2022/01/30 10:47:22;;;;;;;;;11.00;5.25;;;;;8.30;64.48;102458.16;5094517;27;45721;-68
2022/01/30 10:49:47;;;;;;;;;19.00;11.25;;;;;8.43;64.40;102453.78;5095619;27;46751;-73
2022/01/30 10:52:14;;;;;;;;;8.50;4.50;;;;;8.53;64.11;102454.69;5095496;27;46070;-66
2022/01/30 10:54:40;;;;;;;;;10.50;5.00;;;;;8.55;63.89;102452.94;5096821;27;45499;-70
2022/01/30 10:57:10;;;;;;;;;11.00;6.00;;;;;8.58;63.07;102437.19;5097554;27;45416;-68
2022/01/30 10:59:46;;;;;;;;;12.25;6.00;;;;;8.63;63.27;102445.03;5097314;27;46171;-64
2022/01/30 11:02:25;;;;;;;;;9.25;8.00;;;;;8.66;62.80;102454.69;5098233;27;45266;-70
2022/01/30 11:05:01;;;;;;;;;15.50;6.00;;;;;8.69;62.62;102444.19;5098478;27;45324;-79
2022/01/30 11:07:29;;;;;;;;;7.25;5.00;;;;;8.72;62.69;102437.16;5104468;27;45506;-72
2022/01/30 11:09:58;;;;;;;;;4.75;4.75;;;;;8.84;62.28;102449.38;5117907;27;46235;-66
2022/01/30 11:17:59;;;;;;;;;14.50;9.00;;;;;9.07;61.73;102443.16;5098719;27;45565;-64
2022/01/30 11:20:27;;;;;;;;;14.00;10.00;;;;;9.07;61.96;102427.41;5097174;27;45267;-70
2022/01/30 11:22:54;;;;;;;;;15.50;9.00;;;;;9.24;62.54;102429.09;5097168;27;45721;-66
2022/01/30 11:25:21;;;;;;;;;14.50;12.00;;;;;9.36;62.03;102426.41;5097298;27;45389;-62
2022/01/30 11:27:48;;;;;;;;;16.50;9.00;;;;;9.40;62.06;102420.25;5097930;27;45512;-65
2022/01/30 11:30:15;;;;;;;;;12.50;11.75;;;;;9.52;61.49;102418.44;5097659;27;45688;-62
2022/01/30 11:32:41;;;;;;;;;12.75;9.50;;;;;9.65;61.57;102415.72;5098054;27;45431;-64
2022/01/30 11:35:07;;;;;;;;;10.00;8.00;;;;;9.78;60.88;102408.63;5102847;27;45543;-66
2022/01/30 11:37:36;;;;;;;;;8.25;6.00;;;;;9.81;60.49;102404.25;5117885;27;45234;-61
2022/01/30 11:40:11;;;;;;;;;11.00;9.00;;;;;9.81;60.69;102409.50;5117663;27;45386;-68
2022/01/30 11:42:45;;;;;;;;;13.50;8.25;;;;;9.83;60.47;102405.97;5102787;27;45465;-67
2022/01/30 11:45:36;;;;;;;;;8.25;7.00;;;;;9.92;59.91;102403.25;5096006;27;45526;-67
2022/01/30 11:48:13;;;;;;;;;13.25;9.25;;;;;9.99;59.25;102406.72;5093293;27;45444;-69
2022/01/30 11:50:40;;;;;;;;;12.25;9.25;;;;;10.02;59.45;102400.53;5077328;27;47040;-71
2022/01/30 11:53:07;;;;;;;;;9.25;7.50;;;;;10.14;59.28;102392.56;5092732;27;46259;-71
2022/01/30 11:55:54;;;;;;;;;10.00;7.00;;;;;10.29;57.78;102404.69;5095717;27;45620;-66
2022/01/30 11:58:49;;;;;;;;;9.00;7.25;;;;;10.47;58.47;102387.91;5096512;27;45369;-69
2022/01/30 12:01:35;;;;;;;;;10.25;7.75;;;;;10.58;58.46;102384.28;5094928;27;46410;-68
2022/01/30 12:04:10;;;;;;;;;13.00;8.00;;;;;10.55;58.02;102379.91;5096205;27;45376;-69
2022/01/30 12:06:43;;;;;;;;;11.75;9.50;;;;;10.53;58.13;102371.16;5096943;27;45524;-65
2022/01/30 12:09:17;;;;;;;;;13.50;11.25;;;;;10.58;58.10;102371.97;5095844;27;45346;-64
2022/01/30 12:11:47;;;;;;;;;14.00;10.00;;;;;10.60;58.36;102371.97;5095599;27;46415;-66
2022/01/30 12:14:22;;;;;;;;;16.25;12.25;;;;;10.72;58.70;102381.50;5075581;27;45429;-63
2022/01/30 12:16:52;;;;;;;;;13.00;7.50;;;;;10.56;56.98;102339.53;5097328;27;45354;-65
2022/01/30 12:19:42;;;;;;;;;15.25;10.75;;;;;10.84;56.63;102364.66;5096135;27;45366;-65
2022/01/30 12:22:17;;;;;;;;;15.00;11.50;;;;;10.86;56.67;102363.75;5093598;27;45678;-67
2022/01/30 12:24:44;;;;;;;;;12.50;7.75;;;;;10.75;56.37;102360.41;5097436;27;45381;-71
2022/01/30 12:27:10;;;;;;;;;18.50;13.75;;;;;10.54;56.68;102346.56;5096356;27;45474;-69
2022/01/30 12:29:38;;;;;;;;;10.50;7.25;;;;;10.56;56.56;102349.22;5095431;27;45416;-74
2022/01/30 12:32:30;;;;;;;;;12.50;11.50;;;;;10.35;57.09;102344.13;5094519;27;47524;-67